サンフランシスコ の空港の天気 - METARとTAF

サンフランシスコ国際空港 ( KSFO / SFO ) - アメリカ カリフォルニア州サンマテオ郡
飛行場実況気象(Metar)
観測時間09/20 13:56 PDT (09/20 20:56 UTC)
風向・風速北 2m/s
視程10km以上
天気現象
なし
気温25.6℃
湿度48%
気圧1010.4hPa
METARKSFO 202056Z 35004KT 10SM CLR 26/14 A2984 RMK AO2 SLP104 T02560139 58014
過去の天気等 Google飛行場航空写真 Wunderground天気予報

過去48時間のMETAR

飛行場予報(TAF)
発表時間: 9/20 14:03 PDT (9/20 21:03 UTC)
予報対象時間: 20日14時 PDT ~ 21日17時 PDT
風向・風速北 2m/s
視程10km以上
なし
20日15時 PDT から
風向・風速北西 6m/s
視程10km以上
なし
20日23時 PDT から
風向・風速不定 2m/s
視程10km以上
なし
21日11時 PDT から
風向・風速北北西 3m/s
視程10km以上
なし
KSFO 202103Z 2021/2124 35004KT P6SM SKC
FM202200 31012KT P6SM SKC
FM210600 VRB03KT P6SM SKC
FM211800 33005KT P6SM SKC